Cura Malal, Argentina
Current Conditions -  °F | °C
As of 6:00 PM on Friday 28 Nov 2014 (Local Time) from SAZM Reporting Station
Scattered Clouds Scattered Clouds  
Wind Chill: 81°   Ceiling: Unl
Heat Index: 81°   Visibility: 6mi
Dew Point: 54°   Wind: 15mph
Humidity: 39%   Direction: 320°NW
Pressure: 29.85"   Gusts: NA
Location:  37.49°S, 62.11°W
Report Text: SAZM 282100Z 32013KT 9999 FEW023 SCT10027/12 Q1011
Loading
Personal Weather Stations






























Interactive Weather Map New forecast layout! Learn more

10-Day Weather Forecast

Advertisements
Track Severe Weather on mobile